Time;durP1;ratioP1;P1;durP2;ratioP2;P2;SDS_P1;SDS_P2;PMS_P1;PMS_P2;Temp;Humidity;BMP_temperature;BMP_pressure;BME280_temperature;BME280_humidity;BME280_pressure;Samples;Min_cycle;Max_cycle;Signal;HPM_P1;HPM_P2
2022/03/29 00:00:58;;;;;;;26.33;14.82;;;;;;;11.10;40.05;100755.41;5074733;28;20071;-74
2022/03/29 00:03:25;;;;;;;25.45;15.20;;;;;;;11.18;39.88;100758.16;5072707;28;20048;-74
2022/03/29 00:05:52;;;;;;;24.48;14.70;;;;;;;11.08;40.24;100746.69;5073384;28;20072;-74
2022/03/29 00:08:19;;;;;;;26.25;15.45;;;;;;;11.37;39.42;100748.94;5075555;28;20116;-74
2022/03/29 00:10:45;;;;;;;24.73;14.98;;;;;;;10.90;40.58;100744.13;5073912;28;20047;-74
2022/03/29 00:13:12;;;;;;;25.60;15.63;;;;;;;10.90;40.38;100747.66;5074394;28;20084;-74
2022/03/29 00:15:39;;;;;;;27.55;15.77;;;;;;;11.21;39.82;100744.41;5074046;28;20106;-74
2022/03/29 00:18:05;;;;;;;20.90;14.20;;;;;;;10.87;40.78;100742.59;5074179;28;20062;-74
2022/03/29 00:20:32;;;;;;;23.88;14.93;;;;;;;11.18;39.96;100740.19;5074086;28;20144;-74
2022/03/29 00:22:58;;;;;;;28.65;14.95;;;;;;;11.23;39.78;100731.63;5074536;28;20055;-74
2022/03/29 00:25:25;;;;;;;26.17;15.02;;;;;;;11.16;39.79;100727.91;5073427;28;20476;-74
2022/03/29 00:27:52;;;;;;;23.80;15.13;;;;;;;11.39;39.47;100731.66;5074832;28;20070;-73
2022/03/29 00:30:19;;;;;;;25.83;15.65;;;;;;;11.36;39.66;100736.53;5074729;28;20072;-74
2022/03/29 00:32:45;;;;;;;25.60;14.00;;;;;;;11.18;39.96;100726.75;5073902;28;20131;-73
2022/03/29 00:35:12;;;;;;;26.83;15.52;;;;;;;11.26;39.80;100736.66;5069224;28;20064;-74
2022/03/29 00:37:40;;;;;;;28.17;15.00;;;;;;;11.11;40.19;100730.28;5072942;28;20596;-72
2022/03/29 00:40:10;;;;;;;25.95;14.93;;;;;;;11.02;40.24;100734.75;5073826;28;20060;-73
2022/03/29 00:42:37;;;;;;;25.00;15.18;;;;;;;10.92;40.50;100734.88;5074159;28;20055;-74
2022/03/29 00:45:05;;;;;;;29.27;15.30;;;;;;;10.95;40.63;100728.34;5073134;28;20052;-74
2022/03/29 00:47:31;;;;;;;23.48;14.88;;;;;;;10.99;40.39;100729.72;5074161;28;20058;-73
2022/03/29 00:49:58;;;;;;;23.92;15.48;;;;;;;10.80;40.77;100736.19;5073825;28;20047;-72
2022/03/29 00:52:25;;;;;;;25.45;15.40;;;;;;;10.78;40.57;100719.41;5073093;28;20048;-72
2022/03/29 00:54:51;;;;;;;25.30;15.15;;;;;;;10.79;40.93;100715.75;5073866;28;20132;-73
2022/03/29 00:57:18;;;;;;;26.70;14.77;;;;;;;10.75;41.07;100714.34;5073247;28;20071;-74
2022/03/29 00:59:46;;;;;;;26.95;15.43;;;;;;;10.92;40.65;100713.41;5073555;28;20044;-73
2022/03/29 01:02:13;;;;;;;26.92;14.57;;;;;;;10.93;40.62;100712.44;5073128;28;20419;-74
2022/03/29 01:04:40;;;;;;;28.25;15.35;;;;;;;10.92;40.56;100707.22;5073064;28;20048;-73
2022/03/29 01:07:22;;;;;;;25.65;14.73;;;;;;;10.80;40.95;100701.31;5072725;28;20044;-74
2022/03/29 01:10:06;;;;;;;29.00;15.30;;;;;;;10.67;41.31;100707.13;5063218;28;20051;-73
2022/03/29 01:12:34;;;;;;;26.48;15.98;;;;;;;10.86;40.97;100706.03;5072451;28;20082;-72
2022/03/29 01:15:08;;;;;;;25.10;15.23;;;;;;;11.10;40.57;100699.91;5073560;28;20048;-73
2022/03/29 01:17:38;;;;;;;25.08;15.60;;;;;;;11.06;40.70;100703.06;5073524;28;20045;-74
2022/03/29 01:20:32;;;;;;;27.63;15.57;;;;;;;10.84;41.28;100696.47;5074503;28;20048;-72
2022/03/29 01:23:01;;;;;;;25.98;16.23;;;;;;;10.83;41.41;100692.94;5069147;28;20052;-73
2022/03/29 01:25:34;;;;;;;27.63;16.48;;;;;;;10.92;41.33;100705.34;5072017;28;20040;-73
2022/03/29 01:28:02;;;;;;;28.33;15.80;;;;;;;10.96;40.98;100693.31;5072829;28;20057;-73
2022/03/29 01:30:29;;;;;;;26.40;16.33;;;;;;;10.92;41.06;100686.56;5070471;28;20123;-72
2022/03/29 01:32:58;;;;;;;27.33;17.25;;;;;;;10.72;41.50;100686.03;5072391;28;20048;-72
2022/03/29 01:35:25;;;;;;;27.58;16.20;;;;;;;10.68;41.62;100684.66;5072944;28;20124;-72
2022/03/29 01:37:53;;;;;;;28.85;16.65;;;;;;;10.63;41.82;100686.16;5072127;28;20124;-72
2022/03/29 01:40:22;;;;;;;26.63;17.05;;;;;;;10.64;41.67;100683.28;5072567;28;20128;-72
2022/03/29 01:42:54;;;;;;;27.38;15.98;;;;;;;10.93;41.21;100692.81;5072712;28;20048;-72
2022/03/29 01:45:24;;;;;;;26.25;15.90;;;;;;;10.21;42.70;100682.38;5072325;28;20563;-73
2022/03/29 01:47:51;;;;;;;26.50;16.80;;;;;;;10.69;41.87;100680.16;5054480;28;20472;-74
2022/03/29 01:50:17;;;;;;;29.30;16.88;;;;;;;10.64;41.90;100677.09;5072403;28;20556;-73
2022/03/29 01:52:45;;;;;;;29.38;17.40;;;;;;;10.85;41.53;100676.66;5071983;28;20041;-73
2022/03/29 01:55:14;;;;;;;29.08;17.65;;;;;;;10.68;41.91;100665.03;5072196;28;20151;-74
2022/03/29 01:57:41;;;;;;;31.30;17.13;;;;;;;10.80;41.72;100670.97;5068171;28;20190;-74
2022/03/29 02:02:55;;;;;;;27.15;16.98;;;;;;;10.67;41.96;100666.88;5072205;28;20465;-74
2022/03/29 02:05:22;;;;;;;26.88;17.65;;;;;;;10.40;42.53;100662.53;5072523;28;20443;-74
2022/03/29 02:07:50;;;;;;;34.97;17.30;;;;;;;10.63;42.16;100659.31;5072560;28;20068;-73
2022/03/29 02:10:22;;;;;;;30.30;17.83;;;;;;;10.95;41.53;100659.41;5071899;28;20162;-73
2022/03/29 02:12:49;;;;;;;;;;;;;;;10.58;42.31;100650.91;5032625;28;20083;-73
2022/03/29 02:15:16;;;;;;;29.10;17.95;;;;;;;10.87;41.63;100663.94;5034838;28;20316;-74
2022/03/29 02:17:44;;;;;;;32.00;19.40;;;;;;;10.96;41.47;100663.78;5031760;28;20397;-73
2022/03/29 02:20:13;;;;;;;28.83;18.65;;;;;;;10.58;42.29;100658.94;5031843;28;20045;-73
2022/03/29 02:22:41;;;;;;;29.13;18.25;;;;;;;10.91;41.71;100662.59;5033013;28;20053;-73
2022/03/29 02:25:10;;;;;;;32.88;18.58;;;;;;;10.84;41.62;100658.88;5032075;28;20100;-74
2022/03/29 02:27:38;;;;;;;32.65;19.02;;;;;;;10.65;42.17;100651.94;5031300;28;20547;-73
2022/03/29 02:30:06;;;;;;;33.42;18.77;;;;;;;10.87;41.69;100651.34;5032552;28;20087;-73
2022/03/29 02:32:33;;;;;;;30.35;19.10;;;;;;;10.72;42.17;100655.66;5027368;28;20124;-74
2022/03/29 02:35:00;;;;;;;33.85;18.55;;;;;;;10.91;41.62;100657.22;5031742;28;20247;-74
2022/03/29 02:37:26;;;;;;;32.33;18.27;;;;;;;11.01;41.44;100651.72;5032627;28;20446;-73
2022/03/29 02:39:53;;;;;;;33.15;19.65;;;;;;;10.44;42.17;100655.88;5031846;28;20133;-73
2022/03/29 02:42:19;;;;;;;29.98;18.55;;;;;;;11.06;41.40;100660.94;5031592;28;20066;-73
2022/03/29 02:44:46;;;;;;;31.83;19.10;;;;;;;10.74;41.98;100665.22;5030408;28;20076;-73
2022/03/29 02:47:13;;;;;;;30.65;19.13;;;;;;;10.85;41.90;100652.50;5030607;28;20076;-73
2022/03/29 02:49:39;;;;;;;35.78;19.27;;;;;;;10.61;42.33;100655.94;5032037;28;20129;-73
2022/03/29 02:52:06;;;;;;;32.67;18.77;;;;;;;10.90;41.72;100656.38;5032116;28;20132;-74
2022/03/29 02:54:32;;;;;;;30.48;19.20;;;;;;;11.02;41.53;100661.44;5030824;28;20045;-72
2022/03/29 02:56:59;;;;;;;33.45;18.70;;;;;;;10.84;41.95;100656.19;5026473;28;20140;-74
2022/03/29 02:59:25;;;;;;;30.55;19.17;;;;;;;10.82;42.16;100648.28;5032077;28;20490;-73
2022/03/29 03:01:52;;;;;;;29.00;19.50;;;;;;;10.77;42.12;100650.66;5032134;28;20095;-73
2022/03/29 03:04:19;;;;;;;34.60;19.80;;;;;;;11.08;41.52;100650.06;5031283;28;20053;-73
2022/03/29 03:06:45;;;;;;;33.22;20.60;;;;;;;10.92;41.63;100651.69;5031846;28;20068;-72
2022/03/29 03:09:12;;;;;;;33.33;19.98;;;;;;;11.12;41.39;100646.84;5030459;28;20477;-73
2022/03/29 03:11:39;;;;;;;38.65;21.60;;;;;;;10.94;41.79;100646.16;5052688;28;20098;-73
2022/03/29 03:14:06;;;;;;;31.13;21.00;;;;;;;10.70;42.48;100650.44;5070730;28;20049;-74
2022/03/29 03:16:32;;;;;;;33.45;20.63;;;;;;;11.07;41.64;100649.22;5071281;28;20487;-74
2022/03/29 03:19:18;;;;;;;32.97;19.10;;;;;;;10.93;41.86;100644.50;5070959;28;20055;-74
2022/03/29 03:21:45;;;;;;;35.05;21.27;;;;;;;10.76;42.24;100640.94;5070840;28;20153;-74
2022/03/29 03:24:13;;;;;;;41.17;21.90;;;;;;;10.81;42.00;100646.63;5070272;28;20052;-74
2022/03/29 03:26:40;;;;;;;33.00;20.88;;;;;;;10.90;41.97;100645.66;5071255;28;20040;-74
2022/03/29 03:29:06;;;;;;;32.33;20.20;;;;;;;10.94;41.68;100646.16;5070543;28;20057;-72
2022/03/29 03:31:32;;;;;;;38.65;21.42;;;;;;;10.92;41.98;100640.94;5070988;28;20076;-73
2022/03/29 03:33:59;;;;;;;33.78;20.02;;;;;;;10.81;42.26;100641.25;5071790;28;20056;-73
2022/03/29 03:36:26;;;;;;;30.65;19.63;;;;;;;11.04;41.96;100636.13;5072082;28;20066;-73
2022/03/29 03:38:52;;;;;;;35.22;20.88;;;;;;;10.78;42.34;100628.16;5070954;28;20115;-72
2022/03/29 03:41:19;;;;;;;36.92;20.83;;;;;;;10.78;42.11;100630.84;5071078;28;20044;-73
2022/03/29 03:43:45;;;;;;;33.20;20.40;;;;;;;10.69;42.63;100621.13;5070683;28;20079;-72
2022/03/29 03:46:12;;;;;;;35.00;20.10;;;;;;;10.86;42.20;100630.03;5071035;28;20127;-72
2022/03/29 03:48:38;;;;;;;31.67;20.13;;;;;;;10.80;42.56;100631.53;5074738;28;20044;-74
2022/03/29 03:51:05;;;;;;;37.55;21.10;;;;;;;10.69;42.61;100626.47;5073813;28;20127;-73
2022/03/29 03:53:31;;;;;;;35.22;21.08;;;;;;;10.88;42.37;100631.53;5074126;28;20132;-74
2022/03/29 03:55:57;;;;;;;35.22;21.30;;;;;;;10.96;42.23;100628.91;5074401;28;20040;-73
2022/03/29 03:58:24;;;;;;;35.28;20.52;;;;;;;11.03;42.08;100629.03;5073662;28;20119;-72
2022/03/29 04:00:50;;;;;;;33.40;19.80;;;;;;;10.83;42.36;100623.16;5074802;28;20052;-73
2022/03/29 04:03:17;;;;;;;31.95;20.05;;;;;;;10.94;42.25;100620.16;5074913;28;20052;-73
2022/03/29 04:05:44;;;;;;;33.90;21.23;;;;;;;11.06;41.86;100623.34;5074189;28;20059;-73
2022/03/29 04:08:10;;;;;;;36.10;21.73;;;;;;;11.09;41.84;100623.03;5070635;28;20045;-73
2022/03/29 04:10:37;;;;;;;36.35;22.10;;;;;;;11.06;41.89;100622.50;5073027;28;20074;-72
2022/03/29 04:13:04;;;;;;;36.65;21.88;;;;;;;10.83;42.60;100623.16;5074403;28;20079;-73
2022/03/29 04:15:31;;;;;;;38.45;21.98;;;;;;;10.96;42.15;100623.53;5074805;28;20044;-73
2022/03/29 04:18:00;;;;;;;34.38;20.48;;;;;;;10.87;42.17;100627.19;5073805;28;20044;-72
2022/03/29 04:20:27;;;;;;;36.60;21.02;;;;;;;10.52;43.10;100624.75;5073616;28;20070;-72
2022/03/29 04:22:55;;;;;;;37.25;21.63;;;;;;;10.84;42.37;100622.16;5074720;28;20060;-73
2022/03/29 04:25:22;;;;;;;34.50;21.05;;;;;;;10.92;42.10;100615.94;5073948;28;20059;-72
2022/03/29 04:27:48;;;;;;;35.00;20.60;;;;;;;10.89;42.21;100618.97;5073503;28;20044;-72
2022/03/29 04:30:15;;;;;;;40.35;21.30;;;;;;;10.94;41.89;100604.06;5074534;28;20124;-72
2022/03/29 04:32:41;;;;;;;35.20;21.83;;;;;;;10.41;42.88;100607.91;5073020;28;20515;-72
2022/03/29 04:35:08;;;;;;;39.13;22.25;;;;;;;10.89;41.84;100610.91;5073329;28;20128;-73
2022/03/29 04:37:34;;;;;;;37.22;20.67;;;;;;;10.96;41.62;100604.75;5054939;28;20060;-73
2022/03/29 04:40:01;;;;;;;45.22;21.52;;;;;;;10.88;41.97;100609.25;5074271;28;20053;-73
2022/03/29 04:42:27;;;;;;;39.40;22.15;;;;;;;11.07;41.17;100608.94;5074125;28;20084;-73
2022/03/29 04:44:54;;;;;;;39.28;21.95;;;;;;;10.88;41.34;100606.56;5074367;28;20064;-73
2022/03/29 04:47:21;;;;;;;36.72;20.85;;;;;;;11.01;40.93;100598.88;5069005;28;20150;-74
2022/03/29 04:49:47;;;;;;;37.30;21.73;;;;;;;11.08;40.91;100593.66;5070443;28;20095;-73
2022/03/29 04:52:14;;;;;;;38.42;21.90;;;;;;;10.76;41.21;100600.69;5073477;28;20048;-74
2022/03/29 04:54:40;;;;;;;38.53;22.02;;;;;;;10.87;40.72;100592.31;5073346;28;20472;-72
2022/03/29 04:57:07;;;;;;;48.60;23.90;;;;;;;10.70;41.38;100595.97;5072446;28;20239;-72
2022/03/29 04:59:34;;;;;;;37.65;21.67;;;;;;;11.10;40.19;100597.00;5072482;28;20131;-73
2022/03/29 05:02:00;;;;;;;37.47;22.00;;;;;;;11.01;40.52;100589.97;5073990;28;20064;-73
2022/03/29 05:04:27;;;;;;;40.40;23.33;;;;;;;10.96;40.69;100594.00;5072611;28;20045;-72
2022/03/29 05:06:53;;;;;;;40.55;20.67;;;;;;;10.88;41.08;100593.97;5073258;28;20128;-73
2022/03/29 05:09:20;;;;;;;42.67;22.73;;;;;;;10.97;40.98;100587.63;5070972;28;20131;-74
2022/03/29 05:11:46;;;;;;;45.63;22.23;;;;;;;11.06;40.82;100584.94;5071763;28;20076;-73
2022/03/29 05:14:14;;;;;;;45.67;22.27;;;;;;;10.44;41.95;100582.59;5070212;28;20127;-73
2022/03/29 05:16:41;;;;;;;42.70;21.55;;;;;;;10.86;40.95;100589.75;5073014;28;20063;-73
2022/03/29 05:19:07;;;;;;;45.63;23.55;;;;;;;10.74;41.23;100583.88;5072253;28;20044;-73
2022/03/29 05:21:34;;;;;;;43.00;22.77;;;;;;;10.15;42.64;100578.47;5072794;28;20122;-73
2022/03/29 05:24:00;;;;;;;44.10;24.92;;;;;;;10.48;42.15;100587.50;5073470;28;20435;-73
2022/03/29 05:26:27;;;;;;;40.67;23.15;;;;;;;10.80;41.47;100583.22;5072503;28;20036;-73
2022/03/29 05:28:53;;;;;;;46.60;24.08;;;;;;;10.38;42.24;100584.09;5070947;28;20058;-73
2022/03/29 05:31:20;;;;;;;44.97;22.73;;;;;;;10.54;41.82;100587.84;5072876;28;20135;-74
2022/03/29 05:33:46;;;;;;;49.00;22.08;;;;;;;10.54;41.83;100590.53;5055195;28;20132;-73
2022/03/29 05:36:13;;;;;;;41.40;22.42;;;;;;;10.76;41.34;100586.41;5057101;28;20140;-73
2022/03/29 05:38:40;;;;;;;47.05;23.70;;;;;;;10.86;40.98;100590.63;5049555;28;20037;-74
2022/03/29 05:41:09;;;;;;;45.00;23.08;;;;;;;9.41;43.48;100579.06;5050558;28;20143;-74
2022/03/29 05:43:35;;;;;;;53.15;24.80;;;;;;;9.85;42.33;100595.91;5049498;28;20052;-73
2022/03/29 05:48:54;;;;;;;44.35;24.05;;;;;;;10.14;41.86;100592.03;5049492;28;20382;-73
2022/03/29 05:51:21;;;;;;;42.45;22.38;;;;;;;10.54;40.78;100596.75;5050016;28;20200;-73
2022/03/29 05:53:48;;;;;;;45.05;24.40;;;;;;;10.11;41.84;100585.16;5049246;28;20083;-72
2022/03/29 05:56:15;;;;;;;49.95;22.65;;;;;;;10.28;41.08;100586.91;5050257;28;20051;-73
2022/03/29 05:58:42;;;;;;;42.65;23.55;;;;;;;10.03;41.69;100594.00;5049252;28;20044;-73
2022/03/29 06:01:08;;;;;;;46.72;24.25;;;;;;;10.13;41.37;100593.03;5050800;28;20485;-72
2022/03/29 06:03:35;;;;;;;49.20;25.08;;;;;;;10.26;41.10;100588.06;5078280;28;20392;-73
2022/03/29 06:06:02;;;;;;;49.67;25.45;;;;;;;9.93;41.87;100582.56;5075138;28;20453;-74
2022/03/29 06:08:29;;;;;;;53.03;24.27;;;;;;;9.56;42.16;100581.00;5071543;28;20091;-73
2022/03/29 06:10:56;;;;;;;54.78;25.08;;;;;;;10.12;41.28;100576.09;5071838;28;20067;-73
2022/03/29 06:13:22;;;;;;;51.78;25.05;;;;;;;10.20;40.84;100594.06;5070990;28;20105;-73
2022/03/29 06:15:49;;;;;;;56.47;25.13;;;;;;;10.61;40.01;100588.88;5073903;28;20068;-73
2022/03/29 06:18:16;;;;;;;52.40;23.73;;;;;;;10.50;39.99;100590.88;5072565;28;20036;-74
2022/03/29 06:20:47;;;;;;;44.28;23.65;;;;;;;9.83;41.60;100595.22;5069530;28;20133;-73
2022/03/29 06:23:13;;;;;;;48.70;24.02;;;;;;;10.06;40.77;100597.34;5071588;28;20131;-73
2022/03/29 06:25:40;;;;;;;62.58;24.42;;;;;;;9.59;41.92;100597.75;5072435;28;20072;-73
2022/03/29 06:28:07;;;;;;;51.78;24.15;;;;;;;10.20;40.63;100597.59;5071803;28;20119;-73
2022/03/29 06:30:34;;;;;;;49.95;24.50;;;;;;;10.56;39.89;100591.22;5071977;28;20072;-72
2022/03/29 06:33:00;;;;;;;53.83;25.23;;;;;;;10.37;40.22;100598.50;5069356;28;20075;-73
2022/03/29 06:35:28;;;;;;;63.80;24.60;;;;;;;10.55;39.69;100593.06;5067639;28;20079;-73
2022/03/29 06:37:56;;;;;;;49.70;25.23;;;;;;;10.43;39.75;100588.97;5070332;28;20047;-73
2022/03/29 06:40:24;;;;;;;50.95;23.35;;;;;;;10.58;39.57;100592.75;5069689;28;20140;-73
2022/03/29 06:42:52;;;;;;;53.47;25.52;;;;;;;10.76;39.01;100589.94;5069987;28;20404;-73
2022/03/29 06:45:19;;;;;;;52.50;24.42;;;;;;;10.54;39.82;100593.22;5070608;28;20082;-72
2022/03/29 06:47:45;;;;;;;54.95;25.80;;;;;;;10.16;40.10;100596.22;5067270;28;20143;-73
2022/03/29 06:50:11;;;;;;;51.78;25.38;;;;;;;10.71;39.14;100594.94;5071173;28;20126;-73
2022/03/29 06:52:39;;;;;;;48.53;24.63;;;;;;;10.91;38.54;100588.28;5069416;28;20075;-72
2022/03/29 06:55:08;;;;;;;45.08;23.17;;;;;;;11.01;38.50;100598.88;5071524;28;20372;-72
2022/03/29 06:57:35;;;;;;;50.33;23.02;;;;;;;10.45;39.39;100598.53;5071139;28;20044;-73
2022/03/29 07:00:04;;;;;;;51.17;24.60;;;;;;;10.96;38.31;100596.69;5067462;28;20098;-73
2022/03/29 07:02:30;;;;;;;54.42;24.88;;;;;;;10.73;38.63;100595.63;5071769;28;20131;-74
2022/03/29 07:04:57;;;;;;;46.75;23.40;;;;;;;10.93;37.88;100599.69;5069379;28;20044;-72
2022/03/29 07:07:24;;;;;;;48.22;23.05;;;;;;;11.21;37.55;100597.53;5071522;28;20447;-72
2022/03/29 07:12:56;;;;;;;48.58;21.75;;;;;;;11.41;36.49;100597.19;5071606;28;20060;-72
2022/03/29 07:15:23;;;;;;;34.40;19.10;;;;;;;12.04;35.54;100592.94;5072125;28;20107;-73
2022/03/29 07:17:50;;;;;;;44.92;21.58;;;;;;;11.52;36.12;100596.00;5071597;28;20040;-73
2022/03/29 07:20:17;;;;;;;45.08;19.95;;;;;;;11.39;36.07;100600.06;5074619;28;20119;-73
2022/03/29 07:22:47;;;;;;;38.85;18.80;;;;;;;11.99;34.97;100595.28;5072180;28;20547;-73
2022/03/29 07:25:15;;;;;;;42.60;19.77;;;;;;;11.51;35.32;100589.78;5075503;28;20084;-72
2022/03/29 07:27:42;;;;;;;44.67;20.10;;;;;;;12.35;34.11;100588.44;5076427;28;20131;-73
2022/03/29 07:30:10;;;;;;;35.13;19.40;;;;;;;11.99;34.49;100585.34;5077014;28;20048;-73
2022/03/29 07:32:52;;;;;;;53.83;20.75;;;;;;;12.05;34.76;100589.22;5076284;28;20117;-73
2022/03/29 07:35:21;;;;;;;32.55;17.52;;;;;;;11.46;34.77;100592.16;5075767;28;20075;-73
2022/03/29 07:37:49;;;;;;;36.67;16.80;;;;;;;11.61;34.10;100586.94;5075479;28;20048;-73
2022/03/29 07:40:19;;;;;;;42.28;17.65;;;;;;;12.02;33.67;100597.63;5075171;28;20101;-73
2022/03/29 07:42:46;;;;;;;37.75;17.50;;;;;;;12.13;33.28;100586.50;5076291;28;20044;-73
2022/03/29 07:45:13;;;;;;;35.25;18.83;;;;;;;12.35;33.10;100583.06;5075781;28;20142;-73
2022/03/29 07:47:43;;;;;;;43.63;18.83;;;;;;;12.49;32.95;100583.31;5072872;28;20403;-73
2022/03/29 07:50:34;;;;;;;47.15;16.88;;;;;;;12.57;32.71;100585.97;5072238;28;20041;-73
2022/03/29 07:53:05;;;;;;;45.08;18.67;;;;;;;11.69;33.77;100593.19;5074432;28;20104;-72
2022/03/29 07:55:33;;;;;;;30.65;16.38;;;;;;;12.39;32.59;100587.06;5074505;28;20044;-74
2022/03/29 07:58:09;;;;;;;41.30;17.10;;;;;;;12.01;33.05;100577.13;5073828;28;20041;-73
2022/03/29 08:00:36;;;;;;;34.45;17.42;;;;;;;13.46;31.17;100580.97;5074415;28;20056;-73
2022/03/29 08:03:05;;;;;;;31.35;15.88;;;;;;;13.54;30.31;100568.25;5074571;28;20076;-73
2022/03/29 08:05:33;;;;;;;30.90;16.05;;;;;;;13.79;30.05;100566.16;5074038;28;20045;-72
2022/03/29 08:08:00;;;;;;;33.25;16.60;;;;;;;13.29;30.51;100570.34;5074426;28;20072;-73
2022/03/29 08:10:29;;;;;;;41.92;16.30;;;;;;;14.18;29.49;100575.81;5074355;28;20052;-73
2022/03/29 08:12:57;;;;;;;29.25;14.80;;;;;;;14.19;29.02;100565.88;5074593;28;20128;-73
2022/03/29 08:15:24;;;;;;;28.90;14.40;;;;;;;14.94;27.33;100565.50;5074845;28;20132;-73
2022/03/29 08:17:56;;;;;;;27.20;14.30;;;;;;;14.76;26.93;100560.56;5073854;28;20098;-73
2022/03/29 08:20:23;;;;;;;35.05;14.75;;;;;;;14.45;27.36;100543.78;5073797;28;20128;-72
2022/03/29 08:22:50;;;;;;;26.25;14.65;;;;;;;15.91;25.86;100554.03;5074328;28;20128;-73
2022/03/29 08:25:18;;;;;;;28.88;14.70;;;;;;;15.76;25.83;100536.25;5073600;28;20419;-73
2022/03/29 08:27:46;;;;;;;32.10;14.70;;;;;;;16.61;25.02;100535.00;5063231;28;20532;-73
2022/03/29 08:30:13;;;;;;;29.58;15.00;;;;;;;16.54;24.85;100532.28;5071548;28;20075;-73
2022/03/29 08:32:40;;;;;;;34.38;15.10;;;;;;;16.98;24.61;100530.03;5071636;28;20488;-73
2022/03/29 08:35:09;;;;;;;35.83;15.75;;;;;;;17.08;23.99;100535.88;5074301;28;20489;-73
2022/03/29 08:37:36;;;;;;;30.90;14.38;;;;;;;16.28;24.58;100529.44;5074128;28;20064;-73
2022/03/29 08:40:11;;;;;;;38.30;15.57;;;;;;;16.93;23.91;100521.72;5071766;28;20108;-73
2022/03/29 08:42:37;;;;;;;29.33;14.80;;;;;;;17.85;22.90;100521.63;5074040;28;20045;-72
2022/03/29 08:45:08;;;;;;;31.92;15.45;;;;;;;17.26;23.95;100516.28;5073466;28;20076;-72
2022/03/29 08:47:35;;;;;;;24.38;15.05;;;;;;;17.33;23.91;100503.56;5073698;28;20147;-73
2022/03/29 08:50:04;;;;;;;30.08;15.50;;;;;;;18.39;22.66;100513.31;5073550;28;20434;-72
2022/03/29 08:52:31;;;;;;;28.88;16.33;;;;;;;18.27;23.29;100503.16;5073147;28;20050;-73
2022/03/29 08:54:58;;;;;;;39.72;17.13;;;;;;;16.56;25.55;100515.81;5073320;28;20052;-73
2022/03/29 08:57:25;;;;;;;29.20;16.50;;;;;;;17.64;24.01;100496.66;5073771;28;20442;-74
2022/03/29 08:59:51;;;;;;;32.63;16.42;;;;;;;17.15;24.28;100504.19;5071012;28;20449;-74
2022/03/29 09:02:18;;;;;;;41.08;15.68;;;;;;;18.02;23.30;100500.28;5074649;28;20052;-74
2022/03/29 09:05:05;;;;;;;31.90;15.32;;;;;;;16.70;24.34;100497.72;5070062;28;20439;-73
2022/03/29 09:07:56;;;;;;;29.58;14.73;;;;;;;18.47;21.80;100497.59;5073049;28;20064;-74
2022/03/29 09:10:39;;;;;;;27.13;16.05;;;;;;;17.72;23.17;100499.16;5070613;28;20052;-74
2022/03/29 09:13:21;;;;;;;31.13;16.02;;;;;;;17.88;22.83;100498.66;5073013;28;20068;-75
2022/03/29 09:15:49;;;;;;;26.77;14.85;;;;;;;17.10;23.89;100495.88;5072936;28;20059;-75
2022/03/29 09:18:16;;;;;;;27.27;15.40;;;;;;;18.03;22.80;100498.41;5055902;28;20048;-75
2022/03/29 09:20:45;;;;;;;33.47;15.00;;;;;;;17.40;22.66;100499.00;5072321;28;20136;-75
2022/03/29 09:23:14;;;;;;;29.20;14.90;;;;;;;17.65;22.39;100503.75;5063465;28;20052;-76
2022/03/29 09:25:47;;;;;;;27.13;14.35;;;;;;;19.10;20.90;100496.75;5073311;28;20044;-75
2022/03/29 09:28:16;;;;;;;29.35;15.25;;;;;;;19.09;21.07;100486.94;5072557;28;20412;-75
2022/03/29 09:30:47;;;;;;;28.08;15.68;;;;;;;19.54;20.69;100485.91;5072712;28;20048;-74
2022/03/29 09:33:27;;;;;;;30.75;16.27;;;;;;;18.31;21.93;100485.38;5073066;28;20117;-74
2022/03/29 09:35:57;;;;;;;27.80;14.98;;;;;;;19.56;20.24;100479.19;5038119;28;20053;-74
2022/03/29 09:38:30;;;;;;;26.63;15.50;;;;;;;18.91;21.25;100479.53;5072814;28;20445;-74
2022/03/29 09:40:59;;;;;;;28.25;16.42;;;;;;;18.68;21.55;100482.00;5072280;28;20056;-74
2022/03/29 09:43:27;;;;;;;30.33;16.67;;;;;;;18.30;21.85;100489.13;5054010;28;20165;-74
2022/03/29 09:45:57;;;;;;;29.55;16.05;;;;;;;19.02;21.25;100478.84;5072187;28;20076;-75
2022/03/29 09:48:31;;;;;;;28.60;16.52;;;;;;;19.19;20.79;100473.69;5072613;28;20075;-74
2022/03/29 09:51:02;;;;;;;26.10;15.52;;;;;;;19.35;20.89;100469.56;5059743;28;20163;-75
2022/03/29 09:53:37;;;;;;;25.73;15.45;;;;;;;19.04;20.97;100469.66;5072323;28;20076;-74
2022/03/29 09:56:05;;;;;;;25.38;13.63;;;;;;;20.38;19.48;100467.91;5073234;28;20064;-75
2022/03/29 09:58:32;;;;;;;22.45;13.90;;;;;;;19.38;20.88;100460.97;5073913;28;20052;-76
2022/03/29 10:01:00;;;;;;;32.05;15.27;;;;;;;19.78;20.22;100449.66;5073903;28;20071;-76
2022/03/29 10:03:27;;;;;;;23.40;14.50;;;;;;;18.96;20.85;100463.41;5070586;28;20051;-76
2022/03/29 10:06:01;;;;;;;30.10;15.45;;;;;;;18.29;21.42;100468.44;5069881;28;20056;-75
2022/03/29 10:11:19;;;;;;;21.45;14.35;;;;;;;17.99;21.63;100451.03;5067938;28;20040;-76
2022/03/29 10:13:46;;;;;;;24.63;13.88;;;;;;;18.65;20.97;100455.28;5053836;28;20075;-76
2022/03/29 10:16:16;;;;;;;26.00;13.68;;;;;;;18.59;20.94;100451.56;5072479;28;20041;-76
2022/03/29 10:18:46;;;;;;;24.17;13.63;;;;;;;18.48;20.85;100442.25;5070957;28;20079;-75
2022/03/29 10:21:16;;;;;;;28.85;14.45;;;;;;;19.63;19.79;100441.84;5072282;28;20120;-75
2022/03/29 10:23:45;;;;;;;28.67;13.20;;;;;;;19.08;19.75;100432.81;5071940;28;20574;-76
2022/03/29 10:26:16;;;;;;;24.17;11.55;;;;;;;19.05;19.80;100433.25;5072826;28;20056;-76
2022/03/29 10:28:46;;;;;;;23.83;12.95;;;;;;;19.20;19.50;100428.28;5072124;28;20051;-75
2022/03/29 10:31:26;;;;;;;21.23;12.50;;;;;;;19.00;19.96;100442.09;5072045;28;20072;-76
2022/03/29 10:34:12;;;;;;;25.58;14.40;;;;;;;19.01;20.43;100422.81;5071590;28;20476;-76
2022/03/29 10:36:59;;;;;;;24.00;13.10;;;;;;;19.14;20.36;100426.44;5069620;28;20044;-76
2022/03/29 10:39:42;;;;;;;24.85;14.05;;;;;;;19.79;19.99;100418.63;5051472;28;20108;-77
2022/03/29 10:42:32;;;;;;;24.67;13.25;;;;;;;19.58;19.70;100417.19;5048038;28;20075;-77
2022/03/29 10:45:09;;;;;;;22.80;12.95;;;;;;;19.87;19.34;100421.06;5051601;28;20057;-75
2022/03/29 10:47:59;;;;;;;18.50;12.68;;;;;;;18.97;19.64;100418.06;5041448;28;20123;-75
2022/03/29 10:50:53;;;;;;;20.83;11.00;;;;;;;19.40;18.40;100415.31;5051577;28;20448;-75
2022/03/29 10:53:34;;;;;;;23.23;11.57;;;;;;;19.43;18.46;100405.88;5053329;28;20469;-75
2022/03/29 10:56:10;;;;;;;19.95;11.38;;;;;;;18.98;18.01;100409.66;5055111;28;20131;-76
2022/03/29 10:59:02;;;;;;;16.73;10.57;;;;;;;19.02;18.43;100401.88;5056884;28;20481;-75
2022/03/29 11:01:30;;;;;;;19.08;11.23;;;;;;;19.01;18.61;100398.34;5056477;28;20041;-75
2022/03/29 11:04:06;;;;;;;23.00;11.60;;;;;;;18.57;19.65;100399.31;5060185;28;20484;-75
2022/03/29 11:06:34;;;;;;;22.67;11.43;;;;;;;18.80;19.94;100387.84;5076249;28;20400;-76
2022/03/29 11:09:15;;;;;;;24.45;12.57;;;;;;;18.97;19.91;100402.56;5076640;28;20044;-77
2022/03/29 11:11:51;;;;;;;23.13;12.45;;;;;;;18.70;20.33;100404.66;5076316;28;20056;-76
2022/03/29 11:14:39;;;;;;;23.45;11.70;;;;;;;19.37;18.61;100388.53;5076705;28;20086;-75
2022/03/29 11:17:09;;;;;;;18.52;11.23;;;;;;;18.63;18.76;100393.00;5076062;28;20079;-75
2022/03/29 11:19:49;;;;;;;20.95;10.45;;;;;;;18.34;18.92;100382.78;5067503;28;20050;-73
2022/03/29 11:22:21;;;;;;;22.65;10.38;;;;;;;18.22;19.21;100377.22;5074453;28;20151;-75
2022/03/29 11:24:49;;;;;;;22.95;9.95;;;;;;;18.53;18.81;100360.06;5075762;28;20076;-75
2022/03/29 11:27:28;;;;;;;19.48;10.52;;;;;;;18.73;18.84;100359.91;5073191;28;20549;-75
2022/03/29 11:29:55;;;;;;;21.08;9.65;;;;;;;19.04;18.46;100361.72;5076251;28;20068;-75